Terminal Aerodrome Forecast
Issued by NWS

Home | Current Version | Previous Version | Text Only | Print | Product List | Glossary Off
Versions: 1 2 3 4 5 6 7 8 9 10 11 12 13 14 15 16 17 18

000
FTUS43 KMPX 182300
TAFAXN
TAF
KAXN 182339Z 1900/1924 13006KT P6SM BKN070
     FM190600 15006KT P6SM OVC015
     FM190900 16005KT P6SM OVC008
     FM191600 17009KT P6SM OVC020=

USA.gov is the U.S. government's official web portal to all federal, state and local government web resources and services.